Time;durP1;ratioP1;P1;durP2;ratioP2;P2;SDS_P1;SDS_P2;PMS_P1;PMS_P2;Temp;Humidity;BMP_temperature;BMP_pressure;BME280_temperature;BME280_humidity;BME280_pressure;Samples;Min_cycle;Max_cycle;Signal;HPM_P1;HPM_P2
2022/09/14 00:00:50;;;;;;;;;;;;;;;15.28;100.00;100770.16;5324074;28;20241;-80
2022/09/14 00:03:21;;;;;;;;;;;;;;;15.24;100.00;100768.84;5325846;27;20254;-80
2022/09/14 00:05:52;;;;;;;;;;;;;;;15.17;100.00;100757.13;5327623;27;19966;-80
2022/09/14 00:08:23;;;;;;;;;;;;;;;15.10;100.00;100756.13;5328140;27;20401;-80
2022/09/14 00:10:55;;;;;;;;;;;;;;;15.03;100.00;100749.78;5329195;27;20297;-80
2022/09/14 00:13:26;;;;;;;;;;;;;;;15.00;100.00;100750.97;5329496;27;20007;-80
2022/09/14 00:16:01;;;;;;;;;;;;;;;14.99;100.00;100753.81;5328339;27;19924;-80
2022/09/14 00:18:33;;;;;;;;;;;;;;;14.96;100.00;100752.31;5329333;27;19924;-80
2022/09/14 00:21:05;;;;;;;;;;;;;;;14.91;100.00;100760.06;5328347;27;19928;-80
2022/09/14 00:23:38;;;;;;;;;;;;;;;14.86;100.00;100760.56;5329402;27;20303;-80
2022/09/14 00:26:11;;;;;;;;;;;;;;;14.80;100.00;100760.44;5326909;27;20354;-80
2022/09/14 00:28:44;;;;;;;;;;;;;;;14.79;100.00;100750.69;5329785;27;19912;-81
2022/09/14 00:31:15;;;;;;;;;;;;;;;14.80;100.00;100763.97;5330665;27;20057;-80
2022/09/14 00:33:47;;;;;;;;;;;;;;;14.77;100.00;100756.25;5327948;27;20364;-80
2022/09/14 00:36:20;;;;;;;;;;;;;;;14.80;100.00;100749.72;5326885;27;19916;-80
2022/09/14 00:38:51;;;;;;;;;;;;;;;14.75;100.00;100751.03;5321697;27;19978;-80
2022/09/14 00:41:24;;;;;;;;;;;;;;;14.69;100.00;100741.00;5331683;27;19943;-80
2022/09/14 00:44:01;;;;;;;;;;;;;;;14.65;100.00;100744.19;5327904;27;20407;-80
2022/09/14 00:46:39;;;;;;;;;;;;;;;14.69;100.00;100737.47;5329379;27;19912;-80
2022/09/14 00:49:12;;;;;;;;;;;;;;;14.68;100.00;100738.50;5327030;27;20411;-80
2022/09/14 00:51:57;;;;;;;;;;;;;;;14.65;100.00;100734.28;5331485;27;20016;-80
2022/09/14 00:54:29;;;;;;;;;;;;;;;14.66;100.00;100727.09;5329336;27;20411;-80
2022/09/14 00:57:01;;;;;;;;;;;;;;;14.67;100.00;100718.88;5328954;27;19954;-80
2022/09/14 00:59:35;;;;;;;;;;;;;;;14.67;100.00;100715.31;5328762;27;19923;-80
2022/09/14 01:02:08;;;;;;;;;;;;;;;14.66;100.00;100703.75;5329123;27;19920;-80
2022/09/14 01:04:39;;;;;;;;;;;;;;;14.66;100.00;100698.38;5327537;28;19912;-80
2022/09/14 01:07:17;;;;;;;;;;;;;;;14.67;100.00;100696.53;5328867;27;19923;-80
2022/09/14 01:09:51;;;;;;;;;;;;;;;14.67;100.00;100697.41;5328625;27;20376;-80
2022/09/14 01:12:25;;;;;;;;;;;;;;;14.67;100.00;100699.22;5329081;27;19971;-80
2022/09/14 01:15:02;;;;;;;;;;;;;;;14.67;100.00;100692.03;5327942;27;19912;-80
2022/09/14 01:17:33;;;;;;;;;;;;;;;14.62;100.00;100688.16;5327391;27;19916;-80
2022/09/14 01:20:10;;;;;;;;;;;;;;;14.59;100.00;100684.00;5327833;27;19939;-80
2022/09/14 01:22:57;;;;;;;;;;;;;;;14.56;100.00;100682.44;5327469;27;19916;-80
2022/09/14 01:25:43;;;;;;;;;;;;;;;14.56;100.00;100690.50;5306552;28;19989;-80
2022/09/14 01:28:21;;;;;;;;;;;;;;;14.50;100.00;100695.72;5318916;27;20291;-81
2022/09/14 01:30:56;;;;;;;;;;;;;;;14.43;100.00;100700.09;5328852;27;19920;-80
2022/09/14 01:33:31;;;;;;;;;;;;;;;14.37;100.00;100697.09;5327062;27;19924;-80
2022/09/14 01:36:05;;;;;;;;;;;;;;;14.38;100.00;100703.31;5327310;27;20062;-80
2022/09/14 01:38:39;;;;;;;;;;;;;;;14.36;100.00;100698.09;5327614;27;19922;-80
2022/09/14 01:41:12;;;;;;;;;;;;;;;14.40;100.00;100705.81;5326584;27;20281;-80
2022/09/14 01:43:45;;;;;;;;;;;;;;;14.41;100.00;100699.41;5327455;27;19931;-80
2022/09/14 01:46:18;;;;;;;;;;;;;;;14.36;100.00;100695.41;5327596;27;19949;-80
2022/09/14 01:48:56;;;;;;;;;;;;;;;14.33;100.00;100694.94;5327354;27;19916;-80
2022/09/14 01:51:35;;;;;;;;;;;;;;;14.30;100.00;100687.22;5326798;27;19920;-80
2022/09/14 01:54:10;;;;;;;;;;;;;;;14.26;100.00;100680.53;5328247;27;20010;-80
2022/09/14 01:56:48;;;;;;;;;;;;;;;14.29;100.00;100688.22;5326984;27;19946;-80
2022/09/14 01:59:21;;;;;;;;;;;;;;;14.30;100.00;100682.66;5327430;27;20291;-80
2022/09/14 02:02:02;;;;;;;;;;;;;;;14.34;100.00;100681.34;5319765;27;19916;-80
2022/09/14 02:04:37;;;;;;;;;;;;;;;14.32;100.00;100678.00;5327341;27;19920;-80
2022/09/14 02:07:09;;;;;;;;;;;;;;;14.33;100.00;100674.28;5326926;27;19957;-80
2022/09/14 02:09:40;;;;;;;;;;;;;;;14.32;100.00;100674.44;5326120;27;19920;-80
2022/09/14 02:12:12;;;;;;;;;;;;;;;14.32;100.00;100672.63;5326783;27;20308;-80
2022/09/14 02:14:44;;;;;;;;;;;;;;;14.33;100.00;100682.34;5327203;27;19916;-80
2022/09/14 02:17:16;;;;;;;;;;;;;;;14.33;100.00;100678.81;5326444;27;19927;-80
2022/09/14 02:19:51;;;;;;;;;;;;;;;14.33;100.00;100686.88;5326769;27;19920;-80
2022/09/14 02:22:24;;;;;;;;;;;;;;;14.31;100.00;100679.00;5328163;27;19916;-80
2022/09/14 02:24:56;;;;;;;;;;;;;;;14.31;100.00;100679.00;5327063;27;19923;-80
2022/09/14 02:27:27;;;;;;;;;;;;;;;14.30;100.00;100682.66;5324656;27;19912;-80
2022/09/14 02:29:58;;;;;;;;;;;;;;;14.29;100.00;100683.69;5359605;27;19916;-80
2022/09/14 02:32:37;;;;;;;;;;;;;;;14.28;100.00;100683.88;5328206;27;19924;-79
2022/09/14 02:35:24;;;;;;;;;;;;;;;14.26;100.00;100692.06;5326658;27;19955;-80
2022/09/14 02:38:03;;;;;;;;;;;;;;;14.29;100.00;100686.38;5309532;27;19920;-79
2022/09/14 02:40:49;;;;;;;;;;;;;;;14.32;100.00;100683.38;5326786;27;20314;-79
2022/09/14 02:43:36;;;;;;;;;;;;;;;14.33;100.00;100682.34;5326011;27;19924;-79
2022/09/14 02:46:22;;;;;;;;;;;;;;;14.36;100.00;100679.31;5326737;27;20380;-79
2022/09/14 02:49:03;;;;;;;;;;;;;;;14.37;100.00;100683.69;5324275;27;19969;-79
2022/09/14 02:51:34;;;;;;;;;;;;;;;14.41;100.00;100678.81;5327560;27;19920;-79
2022/09/14 02:54:24;;;;;;;;;;;;;;;14.43;100.00;100670.56;5327449;27;20333;-79
2022/09/14 02:56:58;;;;;;;;;;;;;;;14.41;100.00;100676.13;5325118;27;19920;-79
2022/09/14 02:59:29;;;;;;;;;;;;;;;14.44;100.00;100672.25;5326097;27;20006;-79
2022/09/14 03:02:01;;;;;;;;;;;;;;;14.46;100.00;100667.53;5326540;27;19930;-79
2022/09/14 03:04:32;;;;;;;;;;;;;;;14.45;100.00;100660.53;5326709;27;19912;-79
2022/09/14 03:07:03;;;;;;;;;;;;;;;14.47;100.00;100663.88;5329630;27;19916;-79
2022/09/14 03:09:34;;;;;;;;;;;;;;;14.44;100.00;100658.84;5326626;27;20460;-79
2022/09/14 03:12:05;;;;;;;;;;;;;;;14.41;100.00;100656.50;5325111;27;20019;-79
2022/09/14 03:14:37;;;;;;;;;;;;;;;14.35;100.00;100656.16;5326736;27;19999;-79
2022/09/14 03:17:08;;;;;;;;;;;;;;;14.31;100.00;100651.34;5325577;27;19923;-80
2022/09/14 03:19:40;;;;;;;;;;;;;;;14.28;100.00;100646.31;5328468;27;19967;-79
2022/09/14 03:22:11;;;;;;;;;;;;;;;14.25;100.00;100649.31;5325514;27;20335;-79
2022/09/14 03:24:42;;;;;;;;;;;;;;;14.22;100.00;100650.50;5326728;27;19957;-79
2022/09/14 03:27:13;;;;;;;;;;;;;;;14.25;100.00;100658.19;5321348;27;20308;-80
2022/09/14 03:29:45;;;;;;;;;;;;;;;14.24;100.00;100653.03;5326281;27;19942;-79
2022/09/14 03:32:16;;;;;;;;;;;;;;;14.23;100.00;100651.34;5325381;27;19920;-80
2022/09/14 03:34:47;;;;;;;;;;;;;;;14.21;100.00;100642.63;5326358;27;20037;-79
2022/09/14 03:37:18;;;;;;;;;;;;;;;14.21;100.00;100627.38;5324471;27;19958;-79
2022/09/14 03:39:50;;;;;;;;;;;;;;;14.22;100.00;100628.19;5326449;27;19967;-80
2022/09/14 03:42:21;;;;;;;;;;;;;;;14.21;100.00;100634.59;5323145;27;20411;-79
2022/09/14 03:44:52;;;;;;;;;;;;;;;14.21;100.00;100624.69;5325503;27;19960;-80
2022/09/14 03:47:23;;;;;;;;;;;;;;;14.20;100.00;100620.34;5325427;27;19920;-79
2022/09/14 03:49:55;;;;;;;;;;;;;;;14.15;100.00;100615.50;5327190;27;20031;-80
2022/09/14 03:52:26;;;;;;;;;;;;;;;14.15;100.00;100618.16;5323481;27;19926;-80
2022/09/14 03:54:57;;;;;;;;;;;;;;;14.13;100.00;100616.66;5326039;27;19912;-80
2022/09/14 03:57:28;;;;;;;;;;;;;;;14.10;100.00;100615.16;5324896;27;19923;-80
2022/09/14 04:00:00;;;;;;;;;;;;;;;14.10;100.00;100615.16;5321677;27;19917;-80
2022/09/14 04:02:31;;;;;;;;;;;;;;;14.07;100.00;100609.31;5319930;27;19916;-80
2022/09/14 04:05:02;;;;;;;;;;;;;;;14.03;100.00;100613.34;5325809;27;20288;-80
2022/09/14 04:07:34;;;;;;;;;;;;;;;13.99;100.00;100615.53;5325872;27;19978;-80
2022/09/14 04:10:06;;;;;;;;;;;;;;;13.96;100.00;100614.00;5326932;27;19916;-80
2022/09/14 04:12:37;;;;;;;;;;;;;;;13.96;100.00;100610.50;5324240;27;20413;-80
2022/09/14 04:15:09;;;;;;;;;;;;;;;13.99;100.00;100610.16;5324992;27;19912;-80
2022/09/14 04:17:40;;;;;;;;;;;;;;;14.02;100.00;100611.66;5326554;27;20310;-80
2022/09/14 04:20:11;;;;;;;;;;;;;;;13.97;100.00;100604.97;5325313;27;19973;-80
2022/09/14 04:22:43;;;;;;;;;;;;;;;13.92;100.00;100615.38;5323742;27;20057;-80
2022/09/14 04:25:14;;;;;;;;;;;;;;;13.90;100.00;100612.03;5324268;27;19916;-79
2022/09/14 04:27:45;;;;;;;;;;;;;;;13.91;100.00;100608.31;5325330;27;19930;-80
2022/09/14 04:30:16;;;;;;;;;;;;;;;13.90;100.00;100600.44;5324715;27;19912;-80
2022/09/14 04:32:47;;;;;;;;;;;;;;;13.89;100.00;100606.84;5324754;27;20409;-80
2022/09/14 04:35:19;;;;;;;;;;;;;;;13.87;100.00;100601.63;5325298;27;19959;-80
2022/09/14 04:37:50;;;;;;;;;;;;;;;13.85;100.00;100594.75;5322940;27;19920;-80
2022/09/14 04:40:21;;;;;;;;;;;;;;;13.81;100.00;100596.94;5327034;27;19920;-80
2022/09/14 04:42:52;;;;;;;;;;;;;;;13.76;100.00;100591.25;5323570;27;20010;-80
2022/09/14 04:45:23;;;;;;;;;;;;;;;13.77;100.00;100591.06;5324643;27;19975;-80
2022/09/14 04:47:54;;;;;;;;;;;;;;;13.76;100.00;100591.25;5325526;27;19974;-80
2022/09/14 04:50:26;;;;;;;;;;;;;;;13.75;100.00;100586.91;5323533;27;19920;-80
2022/09/14 04:52:57;;;;;;;;;;;;;;;13.72;100.00;100588.06;5328358;27;19938;-80
2022/09/14 04:55:28;;;;;;;;;;;;;;;13.72;100.00;100588.06;5328714;27;20007;-79
2022/09/14 04:57:59;;;;;;;;;;;;;;;13.73;100.00;100580.88;5332417;27;19955;-80
2022/09/14 05:00:32;;;;;;;;;;;;;;;13.72;100.00;100576.53;5328408;27;19923;-80
2022/09/14 05:03:03;;;;;;;;;;;;;;;13.74;100.00;100569.13;5327234;27;19927;-80
2022/09/14 05:05:35;;;;;;;;;;;;;;;13.73;100.00;100570.16;5328321;27;19916;-79
2022/09/14 05:08:06;;;;;;;;;;;;;;;13.72;100.00;100571.97;5338635;27;19927;-79
2022/09/14 05:10:37;;;;;;;;;;;;;;;13.70;100.00;100568.63;5308238;27;19912;-79
2022/09/14 05:13:08;;;;;;;;;;;;;;;13.70;100.00;100565.97;5325137;27;19920;-79
2022/09/14 05:15:41;;;;;;;;;;;;;;;13.70;100.00;100563.28;5324534;27;19969;-79
2022/09/14 05:18:12;;;;;;;;;;;;;;;13.71;100.00;100561.44;5323452;27;20045;-79
2022/09/14 05:20:43;;;;;;;;;;;;;;;13.69;100.00;100566.13;5323606;27;19924;-80
2022/09/14 05:23:15;;;;;;;;;;;;;;;13.70;100.00;100565.97;5332707;27;19920;-79
2022/09/14 05:25:51;;;;;;;;;;;;;;;13.72;100.00;100574.66;5322994;27;19952;-79
2022/09/14 05:28:23;;;;;;;;;;;;;;;13.75;100.00;100571.66;5329893;27;20338;-79
2022/09/14 05:30:54;;;;;;;;;;;;;;;13.78;100.00;100576.69;5326117;27;19924;-79
2022/09/14 05:33:26;;;;;;;;;;;;;;;13.78;100.00;100578.53;5328256;27;19916;-80
2022/09/14 05:36:01;;;;;;;;;;;;;;;13.81;100.00;100567.44;5325146;27;20380;-80
2022/09/14 05:38:34;;;;;;;;;;;;;;;13.82;100.00;100577.19;5327038;27;19966;-80
2022/09/14 05:41:06;;;;;;;;;;;;;;;13.82;100.00;100576.34;5331004;27;19924;-79
2022/09/14 05:43:37;;;;;;;;;;;;;;;13.83;100.00;100570.78;5325986;27;19928;-80
2022/09/14 05:46:12;;;;;;;;;;;;;;;13.83;100.00;100578.00;5327205;27;20220;-80
2022/09/14 05:48:43;;;;;;;;;;;;;;;13.78;100.00;100575.84;5322973;27;19971;-80
2022/09/14 05:51:15;;;;;;;;;;;;;;;13.73;100.00;100579.03;5320611;27;20105;-80
2022/09/14 05:53:50;;;;;;;;;;;;;;;13.73;100.00;100584.38;5323238;27;19923;-80
2022/09/14 05:56:23;;;;;;;;;;;;;;;13.71;100.00;100582.88;5326014;27;19935;-80
2022/09/14 05:58:54;;;;;;;;;;;;;;;13.71;100.00;100582.88;5342435;27;20002;-80
2022/09/14 06:01:27;;;;;;;;;;;;;;;13.71;100.00;100582.88;5320960;27;20014;-80
2022/09/14 06:04:03;;;;;;;;;;;;;;;13.69;100.00;100588.44;5338676;27;20317;-79
2022/09/14 06:06:34;;;;;;;;;;;;;;;13.72;100.00;100587.25;5331381;27;19968;-80
2022/09/14 06:09:06;;;;;;;;;;;;;;;13.74;100.00;100588.72;5333461;27;19912;-79
2022/09/14 06:11:37;;;;;;;;;;;;;;;13.83;100.00;100597.59;5331309;27;20032;-79
2022/09/14 06:14:08;;;;;;;;;;;;;;;13.89;100.00;100596.09;5334048;27;19924;-79
2022/09/14 06:16:39;;;;;;;;;;;;;;;13.96;100.00;100602.47;5310377;28;20010;-80
2022/09/14 06:19:13;;;;;;;;;;;;;;;13.96;100.00;100597.94;5306577;27;20025;-79
2022/09/14 06:21:44;;;;;;;;;;;;;;;13.96;100.00;100605.13;5305726;28;20351;-79
2022/09/14 06:24:15;;;;;;;;;;;;;;;13.98;100.00;100598.59;5306397;28;19995;-80
2022/09/14 06:26:46;;;;;;;;;;;;;;;13.99;100.00;100602.13;5306062;28;20380;-80
2022/09/14 06:29:17;;;;;;;;;;;;;;;13.97;100.00;100604.13;5324199;27;19917;-79
2022/09/14 06:31:49;;;;;;;;;;;;;;;13.91;100.00;100589.56;5327110;27;20011;-79
2022/09/14 06:34:20;;;;;;;;;;;;;;;13.92;100.00;100595.75;5327910;27;25819;-79
2022/09/14 06:36:51;;;;;;;;;;;;;;;13.84;100.00;100591.25;5320986;27;19941;-79
2022/09/14 06:39:23;;;;;;;;;;;;;;;13.78;100.00;100591.94;5327247;27;20372;-79
2022/09/14 06:41:54;;;;;;;;;;;;;;;13.78;100.00;100589.25;5326862;27;20014;-79
2022/09/14 06:44:26;;;;;;;;;;;;;;;13.76;100.00;100584.06;5327103;27;20027;-80
2022/09/14 06:46:57;;;;;;;;;;;;;;;13.73;100.00;100591.59;5327400;27;19916;-80
2022/09/14 06:49:28;;;;;;;;;;;;;;;13.69;100.00;100587.56;5321780;27;19920;-80
2022/09/14 06:51:59;;;;;;;;;;;;;;;13.67;100.00;100577.00;5338563;27;19925;-80
2022/09/14 06:54:31;;;;;;;;;;;;;;;13.68;100.00;100580.56;5305616;28;19952;-80
2022/09/14 06:57:02;;;;;;;;;;;;;;;13.65;100.00;100578.19;5305418;28;19916;-80
2022/09/14 06:59:33;;;;;;;;;;;;;;;13.64;100.00;100573.84;5305847;28;19912;-80
2022/09/14 07:02:04;;;;;;;;;;;;;;;13.58;100.00;100570.81;5304892;28;19962;-80
2022/09/14 07:04:35;;;;;;;;;;;;;;;13.53;100.00;100570.50;5304301;28;19912;-80
2022/09/14 07:07:07;;;;;;;;;;;;;;;13.50;100.00;100564.63;5305120;28;20397;-80
2022/09/14 07:09:38;;;;;;;;;;;;;;;13.49;100.00;100557.63;5314604;27;19998;-80
2022/09/14 07:12:10;;;;;;;;;;;;;;;13.45;100.00;100570.50;5312606;27;20451;-80
2022/09/14 07:14:41;;;;;;;;;;;;;;;13.46;100.00;100564.13;5304421;28;19912;-80
2022/09/14 07:17:15;;;;;;;;;;;;;;;13.52;100.00;100566.16;5304804;28;19977;-80
2022/09/14 07:19:46;;;;;;;;;;;;;;;13.47;100.00;100563.13;5305074;28;20403;-80
2022/09/14 07:22:17;;;;;;;;;;;;;;;13.46;100.00;100564.13;5304926;28;19952;-80
2022/09/14 07:24:49;;;;;;;;;;;;;;;13.44;100.00;100560.78;5303921;28;19959;-80
2022/09/14 07:27:20;;;;;;;;;;;;;;;13.46;100.00;100556.09;5352696;27;19963;-80
2022/09/14 07:29:51;;;;;;;;;;;;;;;13.50;100.00;100561.94;5325965;27;19916;-81
2022/09/14 07:32:23;;;;;;;;;;;;;;;13.51;100.00;100560.97;5325128;27;19961;-81
2022/09/14 07:34:54;;;;;;;;;;;;;;;13.56;100.00;100566.66;5325343;27;19923;-80
2022/09/14 07:37:25;;;;;;;;;;;;;;;13.59;100.00;100567.16;5326445;27;19916;-80
2022/09/14 07:39:56;;;;;;;;;;;;;;;13.64;100.00;100566.66;5326183;28;19912;-80
2022/09/14 07:42:27;;;;;;;;;;;;;;;13.73;100.00;100564.81;5325328;27;19947;-81
2022/09/14 07:44:59;;;;;;;;;;;;;;;13.73;100.00;100570.16;5324457;27;19923;-81
2022/09/14 07:47:30;;;;;;;;;;;;;;;13.73;100.00;100556.75;5326734;27;19920;-80
2022/09/14 07:50:02;;;;;;;;;;;;;;;13.74;100.00;100548.53;5326796;27;19919;-80
2022/09/14 07:52:33;;;;;;;;;;;;;;;13.74;100.00;100547.69;5326394;27;19962;-81
2022/09/14 07:55:05;;;;;;;;;;;;;;;13.77;100.00;100553.56;5326408;27;19956;-80
2022/09/14 07:57:37;;;;;;;;;;;;;;;13.80;100.00;100557.75;5325952;27;19916;-80
2022/09/14 08:00:09;;;;;;;;;;;;;;;13.77;100.00;100553.56;5318815;27;19934;-80
2022/09/14 08:02:41;;;;;;;;;;;;;;;13.78;100.00;100549.88;5303874;28;20003;-80
2022/09/14 08:05:13;;;;;;;;;;;;;;;13.83;100.00;100551.19;5304349;28;20328;-80
2022/09/14 08:07:45;;;;;;;;;;;;;;;13.82;100.00;100553.06;5304657;28;19923;-80
2022/09/14 08:10:16;;;;;;;;;;;;;;;13.90;100.00;100552.19;5304632;28;19917;-81
2022/09/14 08:12:51;;;;;;;;;;;;;;;13.93;100.00;100554.53;5304945;27;20308;-80
2022/09/14 08:15:22;;;;;;;;;;;;;;;13.96;100.00;100554.19;5325285;27;19927;-79
2022/09/14 08:17:54;;;;;;;;;;;;;;;13.97;100.00;100550.50;5325954;27;20688;-80
2022/09/14 08:20:25;;;;;;;;;;;;;;;13.95;100.00;100553.34;5326044;27;19916;-80
2022/09/14 08:22:57;;;;;;;;;;;;;;;13.94;100.00;100549.00;5326056;27;19919;-81
2022/09/14 08:25:30;;;;;;;;;;;;;;;13.97;100.00;100556.72;5325137;27;19952;-78
2022/09/14 08:28:01;;;;;;;;;;;;;;;14.01;100.00;100554.53;5328017;27;19920;-80
2022/09/14 08:30:32;;;;;;;;;;;;;;;14.04;100.00;100556.84;5328947;27;20229;-79
2022/09/14 08:33:04;;;;;;;;;;;;;;;14.11;100.00;100562.34;5328885;27;19930;-80
2022/09/14 08:35:40;;;;;;;;;;;;;;;14.12;100.00;100556.81;5329163;27;20022;-80
2022/09/14 08:38:11;;;;;;;;;;;;;;;14.16;100.00;100560.84;5328767;27;19916;-81
2022/09/14 08:40:44;;;;;;;;;;;;;;;14.27;100.00;100569.50;5329524;28;19930;-79
2022/09/14 08:43:17;;;;;;;;;;;;;;;14.37;100.00;100565.63;5328021;27;20391;-80
2022/09/14 08:45:49;;;;;;;;;;;;;;;14.32;100.00;100567.13;5328075;27;19923;-78
2022/09/14 08:48:26;;;;;;;;;;;;;;;14.30;100.00;100564.63;5329217;27;19916;-80
2022/09/14 08:50:57;;;;;;;;;;;;;;;14.37;100.00;100575.50;5309415;27;19912;-80
2022/09/14 08:53:28;;;;;;;;;;;;;;;14.47;100.00;100570.78;5308389;28;19924;-80
2022/09/14 08:56:02;;;;;;;;;;;;;;;14.42;100.00;100570.47;5307892;28;19923;-81
2022/09/14 08:58:46;;;;;;;;;;;;;;;14.40;100.00;100574.34;5314650;27;19985;-80
2022/09/14 09:01:23;;;;;;;;;;;;;;;14.41;100.00;100570.63;5326764;27;19912;-81
2022/09/14 09:04:04;;;;;;;;;;;;;;;14.41;100.00;100570.63;5328563;27;19923;-80
2022/09/14 09:06:38;;;;;;;;;;;;;;;14.40;100.00;100567.13;5328494;27;20012;-80
2022/09/14 09:09:12;;;;;;;;;;;;;;;14.38;100.00;100569.16;5328192;27;20005;-81
2022/09/14 09:11:45;;;;;;;;;;;;;;;14.38;100.00;100574.50;5326738;28;19962;-80
2022/09/14 09:14:22;;;;;;;;;;;;;;;14.35;100.00;100570.31;5329515;27;19935;-80
2022/09/14 09:16:55;;;;;;;;;;;;;;;14.35;100.00;100572.16;5328430;27;19913;-80
2022/09/14 09:19:33;;;;;;;;;;;;;;;14.40;100.00;100564.44;5327361;28;20327;-80
2022/09/14 09:22:09;;;;;;;;;;;;;;;14.49;100.00;100562.56;5328587;27;19912;-81
2022/09/14 09:24:42;;;;;;;;;;;;;;;14.55;100.00;100561.84;5326163;27;19928;-81
2022/09/14 09:27:14;;;;;;;;;;;;;;;14.60;100.00;100553.31;5322522;27;19923;-81
2022/09/14 09:29:46;;;;;;;;;;;;;;;14.59;100.00;100565.06;5339562;27;19943;-81
2022/09/14 09:32:22;;;;;;;;;;;;;;;14.65;100.00;100564.34;5306666;28;19920;-79
2022/09/14 09:34:53;;;;;;;;;;;;;;;14.70;100.00;100556.59;5306521;28;20371;-81
2022/09/14 09:37:25;;;;;;;;;;;;;;;14.78;100.00;100558.41;5306525;28;19916;-80
2022/09/14 09:39:56;;;;;;;;;;;;;;;14.77;100.00;100551.38;5322307;27;20022;-81
2022/09/14 09:42:27;;;;;;;;;;;;;;;14.76;100.00;100555.88;5326433;27;19922;-80
2022/09/14 09:45:00;;;;;;;;;;;;;;;14.72;100.00;100560.78;5326966;27;19924;-80
2022/09/14 09:47:37;;;;;;;;;;;;;;;14.70;100.00;100564.66;5327828;27;19918;-80
2022/09/14 09:50:19;;;;;;;;;;;;;;;14.63;100.00;100567.22;5327593;27;20458;-81
2022/09/14 09:52:54;;;;;;;;;;;;;;;14.57;100.00;100563.34;5327523;27;19944;-79
2022/09/14 09:55:30;;;;;;;;;;;;;;;14.62;100.00;100567.38;5326682;27;19924;-81
2022/09/14 09:58:22;;;;;;;;;;;;;;;14.65;100.00;100567.03;5327553;27;20384;-80
2022/09/14 10:00:58;;;;;;;;;;;;;;;14.72;100.00;100568.00;5327416;28;20443;-81
2022/09/14 10:03:31;;;;;;;;;;;;;;;14.70;100.00;100562.81;5327980;27;19912;-80
2022/09/14 10:06:08;;;;;;;;;;;;;;;14.88;100.00;100561.69;5326908;27;19919;-81
2022/09/14 10:08:41;;;;;;;;;;;;;;;14.94;100.00;100564.50;5327614;27;19912;-80
2022/09/14 10:11:31;;;;;;;;;;;;;;;15.01;100.00;100566.50;5327209;27;20408;-80
2022/09/14 10:14:03;;;;;;;;;;;;;;;15.02;100.00;100568.16;5327013;27;19919;-80
2022/09/14 10:16:41;;;;;;;;;;;;;;;15.08;100.00;100565.59;5327277;27;19916;-80
2022/09/14 10:19:24;;;;;;;;;;;;;;;15.22;100.00;100561.31;5326919;27;19948;-80
2022/09/14 10:22:03;;;;;;;;;;;;;;;15.24;100.00;100569.19;5325341;27;19923;-80
2022/09/14 10:24:34;;;;;;;;;;;;;;;15.31;100.00;100562.91;5326709;27;19928;-80
2022/09/14 10:27:26;;;;;;;;;;;;;;;15.27;100.00;100563.44;5326751;27;19982;-80
2022/09/14 10:29:59;;;;;;;;;;;;;;;15.05;100.00;100567.81;5325638;27;19958;-79
2022/09/14 10:32:32;;;;;;;;;;;;;;;15.02;100.00;100565.47;5325689;28;20308;-80
2022/09/14 10:35:10;;;;;;;;;;;;;;;14.93;100.00;100568.19;5326632;27;19912;-80
2022/09/14 10:37:49;;;;;;;;;;;;;;;14.89;100.00;100563.38;5326764;28;19916;-80
2022/09/14 10:40:26;;;;;;;;;;;;;;;14.86;100.00;100561.03;5325560;27;20400;-80
2022/09/14 10:43:17;;;;;;;;;;;;;;;14.91;100.00;100564.84;5326097;27;19916;-80
2022/09/14 10:45:49;;;;;;;;;;;;;;;14.86;100.00;100552.97;5326451;28;20404;-79
2022/09/14 10:48:39;;;;;;;;;;;;;;;14.86;100.00;100555.66;5325920;27;19916;-79
2022/09/14 10:51:36;;;;;;;;;;;;;;;14.91;100.00;100553.28;5320464;27;19916;-79
2022/09/14 10:54:32;;;;;;;;;;;;;;;15.01;100.00;100559.28;5314218;27;20240;-80
2022/09/14 10:57:12;;;;;;;;;;;;;;;15.09;100.00;100561.06;5325819;27;20007;-80
2022/09/14 10:59:52;;;;;;;;;;;;;;;15.15;100.00;100567.56;5324658;27;19996;-80
2022/09/14 11:02:28;;;;;;;;;;;;;;;15.22;100.00;100564.00;5326452;27;20094;-80
2022/09/14 11:05:11;;;;;;;;;;;;;;;15.25;100.00;100557.41;5326725;28;19912;-80
2022/09/14 11:07:47;;;;;;;;;;;;;;;15.17;100.00;100552.94;5326411;27;19912;-80
2022/09/14 11:10:28;;;;;;;;;;;;;;;15.16;100.00;100548.56;5325184;27;20376;-80
2022/09/14 11:13:18;;;;;;;;;;;;;;;15.07;100.00;100552.34;5326492;27;20364;-80
2022/09/14 11:16:08;;;;;;;;;;;;;;;14.97;100.00;100546.38;5326012;27;19998;-80
2022/09/14 11:18:39;;;;;;;;;;;;;;;14.87;100.00;100544.75;5324584;28;19919;-80
2022/09/14 11:21:27;;;;;;;;;;;;;;;14.82;100.00;100538.25;5326337;27;20390;-80
2022/09/14 11:24:10;;;;;;;;;;;;;;;14.70;100.00;100537.81;5319343;27;19927;-80
2022/09/14 11:26:44;;;;;;;;;;;;;;;14.66;100.00;100539.19;5316537;27;20392;-80
2022/09/14 11:29:19;;;;;;;;;;;;;;;14.68;100.00;100538.00;5304829;28;19916;-80
2022/09/14 11:31:53;;;;;;;;;;;;;;;14.59;100.00;100532.84;5304481;28;19974;-80
2022/09/14 11:34:30;;;;;;;;;;;;;;;14.49;100.00;100536.53;5305359;28;20356;-79
2022/09/14 11:37:07;;;;;;;;;;;;;;;14.49;100.00;100530.34;5320017;27;19922;-79
2022/09/14 11:39:45;;;;;;;;;;;;;;;14.53;100.00;100531.66;5326611;27;20033;-80
2022/09/14 11:42:21;;;;;;;;;;;;;;;14.52;100.00;100528.16;5326475;27;19916;-79
2022/09/14 11:45:01;;;;;;;;;;;;;;;14.50;100.00;100526.66;5325606;27;19920;-80
2022/09/14 11:47:36;;;;;;;;;;;;;;;14.43;100.00;100523.84;5323963;27;19916;-80
2022/09/14 11:50:13;;;;;;;;;;;;;;;14.33;100.00;100521.38;5325639;27;20400;-80
2022/09/14 11:52:46;;;;;;;;;;;;;;;14.27;100.00;100530.13;5324474;28;20594;-80
2022/09/14 11:55:18;;;;;;;;;;;;;;;14.23;100.00;100530.63;5326621;27;19915;-80
2022/09/14 11:57:49;;;;;;;;;;;;;;;14.18;100.00;100533.81;5325721;27;19970;-80
2022/09/14 12:00:21;;;;;;;;;;;;;;;14.21;100.00;100529.97;5328469;27;19920;-80
2022/09/14 12:03:19;;;;;;;;;;;;;;;14.27;100.00;100540.84;5328639;28;20381;-80
2022/09/14 12:05:50;;;;;;;;;;;;;;;14.41;100.00;100541.97;5329198;27;19995;-80
2022/09/14 12:08:35;;;;;;;;;;;;;;;14.47;100.00;100537.75;5329568;27;20011;-80
2022/09/14 12:11:07;;;;;;;;;;;;;;;14.40;100.00;100529.56;5328798;27;19924;-80
2022/09/14 12:13:38;;;;;;;;;;;;;;;14.39;100.00;100535.91;5329579;27;19938;-80
2022/09/14 12:16:11;;;;;;;;;;;;;;;14.43;100.00;100533.72;5328714;27;19916;-80
2022/09/14 12:18:44;;;;;;;;;;;;;;;14.48;100.00;100539.41;5329142;27;19923;-80
2022/09/14 12:21:21;;;;;;;;;;;;;;;14.52;100.00;100533.50;5329244;27;20291;-80
2022/09/14 12:23:56;;;;;;;;;;;;;;;14.67;100.00;100539.00;5329040;27;19919;-80
2022/09/14 12:26:34;;;;;;;;;;;;;;;14.75;100.00;100540.81;5327584;27;20015;-80
2022/09/14 12:29:23;;;;;;;;;;;;;;;14.79;100.00;100546.66;5329016;27;20012;-80
2022/09/14 12:31:54;;;;;;;;;;;;;;;14.77;100.00;100538.78;5328777;27;20052;-80
2022/09/14 12:34:29;;;;;;;;;;;;;;;14.71;100.00;100542.19;5328802;27;19929;-81
2022/09/14 12:37:18;;;;;;;;;;;;;;;14.71;100.00;100531.44;5331187;27;19938;-80
2022/09/14 12:40:08;;;;;;;;;;;;;;;14.70;100.00;100529.75;5328608;27;19923;-80
2022/09/14 12:42:40;;;;;;;;;;;;;;;14.62;100.00;100522.59;5344593;27;19912;-80
2022/09/14 12:45:30;;;;;;;;;;;;;;;14.53;100.00;100521.78;5327677;27;19920;-79
2022/09/14 12:48:01;;;;;;;;;;;;;;;14.51;100.00;100523.78;5327600;27;19920;-81
2022/09/14 12:50:33;;;;;;;;;;;;;;;14.52;100.00;100520.09;5313458;27;20330;-80
2022/09/14 12:53:27;;;;;;;;;;;;;;;14.52;100.00;100506.69;5325752;27;19947;-80
2022/09/14 12:56:03;;;;;;;;;;;;;;;14.54;100.00;100506.50;5327301;27;20300;-80
2022/09/14 12:58:35;;;;;;;;;;;;;;;14.62;100.00;100505.66;5328429;28;20447;-80
2022/09/14 13:01:28;;;;;;;;;;;;;;;14.69;100.00;100501.22;5328850;27;20061;-80
2022/09/14 13:03:59;;;;;;;;;;;;;;;14.75;100.00;100501.38;5331050;27;19916;-80